SVA568 OEJN-OMDB
Flight info
| Callsign | SVA568 |
|---|---|
| Flight time | N/A |
| Altitude | 35000 |
| Route | EGREP T532 KODIS Y214 RAPMA DCT KUVSO DCT KATIT DCT PEKEM M628 RIGIL G783 ASPED Q308 KIPOK Q568 IMPED |
| Aircraft | A321/M-SDE3FGHIRWY/LB1 |
Departure
| Time | 2026-05-07 09:34 |
|---|---|
| Airport | King Abdulaziz International Airport (OEJN) |
Arrival
| Time | N/A |
|---|---|
| Airport | Dubai International Airport (OMDB) |
| Time | Latitude | Longitude | Altitude | Speed | Heading |
|---|---|---|---|---|---|
| 2026-05-07 09:04 | 21.67547 | 39.14659 | 28 ft | 0 kts | 250° |
| 2026-05-07 09:11 | 21.67547 | 39.14660 | 27 ft | 0 kts | 250° |
| 2026-05-07 09:12 | 21.67548 | 39.14660 | 27 ft | 0 kts | 250° |
| 2026-05-07 09:21 | 21.67548 | 39.14661 | 27 ft | 0 kts | 250° |
| 2026-05-07 09:24 | 21.67558 | 39.14686 | 27 ft | 4 kts | 236° |
| 2026-05-07 09:24 | 21.67576 | 39.14706 | 27 ft | 4 kts | 204° |
| 2026-05-07 09:24 | 21.67595 | 39.14709 | 27 ft | 1 kts | 160° |
| 2026-05-07 09:25 | 21.67596 | 39.14709 | 27 ft | 0 kts | 159° |
| 2026-05-07 09:29 | 21.67595 | 39.14709 | 27 ft | 1 kts | 159° |
| 2026-05-07 09:29 | 21.67567 | 39.14720 | 27 ft | 5 kts | 159° |
| 2026-05-07 09:29 | 21.67528 | 39.14736 | 27 ft | 6 kts | 159° |
| 2026-05-07 09:29 | 21.67487 | 39.14752 | 27 ft | 9 kts | 160° |
| 2026-05-07 09:30 | 21.67421 | 39.14778 | 27 ft | 10 kts | 160° |
| 2026-05-07 09:30 | 21.67362 | 39.14775 | 27 ft | 8 kts | 220° |
| 2026-05-07 09:30 | 21.67337 | 39.14725 | 27 ft | 7 kts | 248° |
| 2026-05-07 09:30 | 21.67320 | 39.14677 | 27 ft | 7 kts | 249° |
| 2026-05-07 09:31 | 21.67305 | 39.14633 | 27 ft | 6 kts | 250° |
| 2026-05-07 09:31 | 21.67284 | 39.14573 | 27 ft | 13 kts | 250° |
| 2026-05-07 09:31 | 21.67252 | 39.14481 | 27 ft | 13 kts | 249° |
| 2026-05-07 09:31 | 21.67222 | 39.14394 | 27 ft | 12 kts | 250° |
| 2026-05-07 09:32 | 21.67194 | 39.14311 | 27 ft | 11 kts | 249° |
| 2026-05-07 09:32 | 21.67167 | 39.14233 | 27 ft | 11 kts | 249° |
| 2026-05-07 09:32 | 21.67142 | 39.14160 | 27 ft | 10 kts | 251° |
| 2026-05-07 09:32 | 21.67118 | 39.14087 | 29 ft | 11 kts | 251° |
| 2026-05-07 09:33 | 21.67091 | 39.14006 | 25 ft | 11 kts | 250° |
| 2026-05-07 09:33 | 21.67113 | 39.13936 | 26 ft | 10 kts | 327° |
| 2026-05-07 09:33 | 21.67188 | 39.13910 | 26 ft | 18 kts | 340° |
| 2026-05-07 09:33 | 21.67520 | 39.13777 | 31 ft | 82 kts | 340° |
| 2026-05-07 09:34 | 21.68220 | 39.13499 | 28 ft | 131 kts | 340° |
| 2026-05-07 09:34 | 21.69193 | 39.13118 | 121 ft | 158 kts | 340° |
| 2026-05-07 09:34 | 21.70227 | 39.12727 | 685 ft | 160 kts | 339° |
| 2026-05-07 09:34 | 21.71222 | 39.12180 | 1238 ft | 162 kts | 332° |
| 2026-05-07 09:35 | 21.72238 | 39.11544 | 1453 ft | 177 kts | 330° |
| 2026-05-07 09:35 | 21.73350 | 39.10829 | 1594 ft | 195 kts | 330° |
| 2026-05-07 09:35 | 21.74559 | 39.10054 | 1820 ft | 207 kts | 330° |
| 2026-05-07 09:35 | 21.75818 | 39.09258 | 2308 ft | 212 kts | 333° |
| 2026-05-07 09:36 | 21.77297 | 39.08846 | 2463 ft | 232 kts | 4° |
| 2026-05-07 09:36 | 21.78867 | 39.09435 | 2654 ft | 254 kts | 37° |
| 2026-05-07 09:36 | 21.80175 | 39.10779 | 3053 ft | 265 kts | 46° |
| 2026-05-07 09:36 | 21.81481 | 39.12214 | 3585 ft | 271 kts | 46° |
| 2026-05-07 09:37 | 21.82818 | 39.13687 | 4092 ft | 279 kts | 47° |
| 2026-05-07 09:37 | 21.84170 | 39.15175 | 4642 ft | 285 kts | 46° |
| 2026-05-07 09:37 | 21.85566 | 39.16699 | 5291 ft | 287 kts | 48° |
| 2026-05-07 09:37 | 21.86981 | 39.18243 | 5828 ft | 293 kts | 47° |
| 2026-05-07 09:38 | 21.88420 | 39.19813 | 6406 ft | 296 kts | 46° |
| 2026-05-07 09:38 | 21.89869 | 39.21393 | 6981 ft | 298 kts | 46° |
| 2026-05-07 09:38 | 21.91335 | 39.22991 | 7538 ft | 301 kts | 46° |
| 2026-05-07 09:38 | 21.92815 | 39.24602 | 8102 ft | 304 kts | 45° |
| 2026-05-07 09:39 | 21.94306 | 39.26226 | 8708 ft | 307 kts | 45° |
| 2026-05-07 09:39 | 21.95816 | 39.27876 | 9229 ft | 312 kts | 45° |
| 2026-05-07 09:39 | 21.97343 | 39.29543 | 9832 ft | 313 kts | 45° |
| 2026-05-07 09:39 | 21.98888 | 39.31227 | 10225 ft | 324 kts | 45° |
| 2026-05-07 09:40 | 22.00517 | 39.33001 | 10339 ft | 342 kts | 45° |
| 2026-05-07 09:40 | 22.02232 | 39.34870 | 10467 ft | 359 kts | 45° |
| 2026-05-07 09:40 | 22.04021 | 39.36827 | 10617 ft | 374 kts | 45° |
| 2026-05-07 09:40 | 22.05862 | 39.38842 | 10991 ft | 380 kts | 46° |
| 2026-05-07 09:41 | 22.07091 | 39.40191 | 11355 ft | 381 kts | 46° |
| 2026-05-07 09:41 | 22.09595 | 39.42937 | 12001 ft | 386 kts | 46° |
| 2026-05-07 09:41 | 22.10846 | 39.44306 | 12353 ft | 388 kts | 46° |
| 2026-05-07 09:41 | 22.13366 | 39.47067 | 13038 ft | 392 kts | 46° |
| 2026-05-07 09:42 | 22.15285 | 39.49170 | 13575 ft | 395 kts | 46° |
| 2026-05-07 09:42 | 22.16590 | 39.50600 | 13902 ft | 397 kts | 46° |
| 2026-05-07 09:42 | 22.18532 | 39.52733 | 14349 ft | 400 kts | 46° |
| 2026-05-07 09:42 | 22.20491 | 39.54886 | 14784 ft | 404 kts | 46° |
| 2026-05-07 09:43 | 22.22468 | 39.57058 | 15200 ft | 408 kts | 46° |
| 2026-05-07 09:43 | 22.24464 | 39.59248 | 15677 ft | 410 kts | 46° |
| 2026-05-07 09:43 | 22.26467 | 39.61446 | 16123 ft | 413 kts | 46° |
| 2026-05-07 09:43 | 22.28493 | 39.63671 | 16539 ft | 416 kts | 46° |
| 2026-05-07 09:44 | 22.30535 | 39.65914 | 16957 ft | 420 kts | 46° |
| 2026-05-07 09:44 | 22.32565 | 39.68148 | 17366 ft | 425 kts | 46° |
| 2026-05-07 09:44 | 22.34647 | 39.70441 | 17729 ft | 430 kts | 46° |
| 2026-05-07 09:44 | 22.36748 | 39.72754 | 18125 ft | 433 kts | 46° |
| 2026-05-07 09:45 | 22.38869 | 39.75091 | 18471 ft | 437 kts | 46° |
| 2026-05-07 09:45 | 22.40999 | 39.77440 | 18836 ft | 439 kts | 46° |
| 2026-05-07 09:45 | 22.43139 | 39.79804 | 19162 ft | 441 kts | 46° |
| 2026-05-07 09:45 | 22.45292 | 39.82180 | 19513 ft | 442 kts | 45° |
| 2026-05-07 09:46 | 22.47468 | 39.84536 | 19877 ft | 443 kts | 44° |
| 2026-05-07 09:46 | 22.49724 | 39.86811 | 20226 ft | 444 kts | 41° |
| 2026-05-07 09:46 | 22.52045 | 39.89022 | 20527 ft | 446 kts | 40° |
| 2026-05-07 09:46 | 22.54409 | 39.91207 | 20815 ft | 449 kts | 39° |
| 2026-05-07 09:47 | 22.56793 | 39.93392 | 21122 ft | 451 kts | 39° |
| 2026-05-07 09:47 | 22.59189 | 39.95609 | 21450 ft | 453 kts | 39° |
| 2026-05-07 09:47 | 22.61572 | 39.97849 | 21779 ft | 455 kts | 40° |
| 2026-05-07 09:47 | 22.63956 | 40.00117 | 22122 ft | 457 kts | 40° |
| 2026-05-07 09:48 | 22.66339 | 40.02404 | 22447 ft | 459 kts | 40° |
| 2026-05-07 09:48 | 22.68725 | 40.04701 | 22839 ft | 459 kts | 41° |
| 2026-05-07 09:48 | 22.71111 | 40.07003 | 23208 ft | 461 kts | 40° |
| 2026-05-07 09:48 | 22.73515 | 40.09319 | 23510 ft | 463 kts | 40° |
| 2026-05-07 09:49 | 22.75931 | 40.11637 | 23779 ft | 465 kts | 40° |
| 2026-05-07 09:49 | 22.78361 | 40.13968 | 24041 ft | 468 kts | 40° |
| 2026-05-07 09:49 | 22.80803 | 40.16310 | 24288 ft | 470 kts | 40° |
| 2026-05-07 09:49 | 22.83229 | 40.18638 | 24517 ft | 472 kts | 40° |
| 2026-05-07 09:50 | 22.85725 | 40.21036 | 24771 ft | 475 kts | 40° |
| 2026-05-07 09:50 | 22.88168 | 40.23384 | 25009 ft | 477 kts | 40° |
| 2026-05-07 09:50 | 22.90655 | 40.25776 | 25244 ft | 479 kts | 40° |
| 2026-05-07 09:50 | 22.93159 | 40.28184 | 25510 ft | 481 kts | 40° |
| 2026-05-07 09:51 | 22.95667 | 40.30597 | 25765 ft | 483 kts | 40° |
| 2026-05-07 09:51 | 22.98186 | 40.33020 | 26007 ft | 485 kts | 40° |
| 2026-05-07 09:51 | 23.00724 | 40.35458 | 26247 ft | 488 kts | 40° |
| 2026-05-07 09:51 | 23.03269 | 40.37903 | 26484 ft | 490 kts | 40° |
| 2026-05-07 09:52 | 23.05824 | 40.40363 | 26719 ft | 493 kts | 40° |
| 2026-05-07 09:52 | 23.08391 | 40.42841 | 26966 ft | 495 kts | 40° |
| 2026-05-07 09:52 | 23.10972 | 40.45336 | 27181 ft | 498 kts | 40° |
| 2026-05-07 09:52 | 23.13567 | 40.47847 | 27388 ft | 501 kts | 40° |
| 2026-05-07 09:53 | 23.16176 | 40.50372 | 27644 ft | 502 kts | 40° |
| 2026-05-07 09:53 | 23.18793 | 40.52904 | 27876 ft | 504 kts | 40° |
| 2026-05-07 09:53 | 23.21417 | 40.55444 | 28093 ft | 506 kts | 40° |
| 2026-05-07 09:53 | 23.24040 | 40.58008 | 28315 ft | 508 kts | 43° |
| 2026-05-07 09:54 | 23.26408 | 40.60866 | 28504 ft | 511 kts | 53° |
| 2026-05-07 09:54 | 23.28362 | 40.64096 | 28719 ft | 512 kts | 62° |
| 2026-05-07 09:54 | 23.29860 | 40.67605 | 28914 ft | 512 kts | 71° |
| 2026-05-07 09:54 | 23.31118 | 40.71227 | 29102 ft | 513 kts | 71° |
| 2026-05-07 09:55 | 23.32379 | 40.74867 | 29284 ft | 515 kts | 71° |
| 2026-05-07 09:55 | 23.33643 | 40.78517 | 29464 ft | 516 kts | 71° |
| 2026-05-07 09:55 | 23.34902 | 40.82142 | 29620 ft | 518 kts | 71° |
| 2026-05-07 09:55 | 23.36178 | 40.85815 | 29792 ft | 519 kts | 71° |
| 2026-05-07 09:56 | 23.37452 | 40.89487 | 30029 ft | 519 kts | 71° |
| 2026-05-07 09:56 | 23.38725 | 40.93160 | 30247 ft | 518 kts | 71° |
| 2026-05-07 09:56 | 23.39990 | 40.96821 | 30452 ft | 517 kts | 71° |
| 2026-05-07 09:56 | 23.41256 | 41.00484 | 30637 ft | 517 kts | 71° |
| 2026-05-07 09:57 | 23.42524 | 41.04157 | 30820 ft | 518 kts | 71° |
| 2026-05-07 09:57 | 23.43792 | 41.07827 | 30998 ft | 518 kts | 71° |
| 2026-05-07 09:57 | 23.45063 | 41.11502 | 31182 ft | 519 kts | 71° |
| 2026-05-07 09:57 | 23.46335 | 41.15187 | 31343 ft | 519 kts | 71° |
| 2026-05-07 09:58 | 23.47604 | 41.18869 | 31543 ft | 519 kts | 71° |
| 2026-05-07 09:58 | 23.48872 | 41.22552 | 31712 ft | 520 kts | 72° |
| 2026-05-07 09:58 | 23.50139 | 41.26246 | 31919 ft | 520 kts | 72° |
| 2026-05-07 09:58 | 23.51404 | 41.29940 | 32090 ft | 521 kts | 72° |
| 2026-05-07 09:59 | 23.52671 | 41.33634 | 32271 ft | 521 kts | 72° |
| 2026-05-07 09:59 | 23.53943 | 41.37336 | 32509 ft | 521 kts | 72° |
| 2026-05-07 09:59 | 23.55209 | 41.41030 | 32746 ft | 520 kts | 72° |
| 2026-05-07 09:59 | 23.56456 | 41.44676 | 32951 ft | 520 kts | 72° |
| 2026-05-07 10:00 | 23.57719 | 41.48370 | 33073 ft | 521 kts | 72° |
| 2026-05-07 10:00 | 23.60247 | 41.55780 | 33105 ft | 521 kts | 72° |
| 2026-05-07 10:01 | 23.62765 | 41.63184 | 33102 ft | 520 kts | 72° |
| 2026-05-07 10:01 | 23.65285 | 41.70568 | 33106 ft | 519 kts | 72° |
| 2026-05-07 10:02 | 23.67796 | 41.77951 | 33093 ft | 519 kts | 72° |
| 2026-05-07 10:02 | 23.70183 | 41.85365 | 33081 ft | 518 kts | 74° |
| 2026-05-07 10:03 | 23.72497 | 41.92811 | 33077 ft | 518 kts | 74° |
| 2026-05-07 10:03 | 23.74827 | 42.00244 | 33066 ft | 518 kts | 73° |
| 2026-05-07 10:04 | 23.77310 | 42.07630 | 33066 ft | 519 kts | 71° |
| 2026-05-07 10:04 | 23.79896 | 42.14980 | 33062 ft | 519 kts | 71° |
| 2026-05-07 10:05 | 23.82449 | 42.22351 | 33058 ft | 520 kts | 71° |
| 2026-05-07 10:05 | 23.84967 | 42.29770 | 33057 ft | 521 kts | 71° |
| 2026-05-07 10:06 | 23.87481 | 42.37205 | 33055 ft | 522 kts | 71° |
| 2026-05-07 10:06 | 23.89997 | 42.44653 | 33054 ft | 524 kts | 72° |
| 2026-05-07 10:07 | 23.92531 | 42.52145 | 33054 ft | 526 kts | 72° |
| 2026-05-07 10:07 | 23.95053 | 42.59595 | 33054 ft | 526 kts | 72° |
| 2026-05-07 10:08 | 23.97586 | 42.67111 | 33055 ft | 527 kts | 72° |
| 2026-05-07 10:08 | 24.00120 | 42.74632 | 33051 ft | 527 kts | 72° |
| 2026-05-07 10:09 | 24.02592 | 42.82196 | 33050 ft | 526 kts | 77° |
| 2026-05-07 10:09 | 24.03527 | 42.90022 | 33046 ft | 515 kts | 97° |
| 2026-05-07 10:10 | 24.02395 | 42.97629 | 33047 ft | 501 kts | 113° |
| 2026-05-07 10:10 | 24.00412 | 43.04945 | 33037 ft | 503 kts | 113° |
| 2026-05-07 10:11 | 23.98422 | 43.12301 | 33037 ft | 504 kts | 113° |
| 2026-05-07 10:11 | 23.96426 | 43.19649 | 33035 ft | 504 kts | 113° |
| 2026-05-07 10:12 | 23.94436 | 43.26963 | 33034 ft | 505 kts | 113° |
| 2026-05-07 10:12 | 23.92425 | 43.34321 | 33032 ft | 505 kts | 113° |
| 2026-05-07 10:13 | 23.90412 | 43.41680 | 33024 ft | 505 kts | 113° |
| 2026-05-07 10:13 | 23.88394 | 43.49030 | 33017 ft | 504 kts | 113° |
| 2026-05-07 10:14 | 23.86381 | 43.56363 | 33009 ft | 504 kts | 113° |
| 2026-05-07 10:14 | 23.84360 | 43.63706 | 32992 ft | 504 kts | 112° |
| 2026-05-07 10:15 | 23.82334 | 43.71036 | 32992 ft | 504 kts | 113° |
| 2026-05-07 10:15 | 23.80299 | 43.78372 | 32983 ft | 504 kts | 113° |
| 2026-05-07 10:16 | 23.78281 | 43.85660 | 32973 ft | 504 kts | 113° |
| 2026-05-07 10:16 | 23.77061 | 43.93274 | 32967 ft | 515 kts | 99° |
| 2026-05-07 10:17 | 23.76509 | 44.01062 | 32955 ft | 515 kts | 99° |
| 2026-05-07 10:17 | 23.75921 | 44.08849 | 32950 ft | 514 kts | 99° |
| 2026-05-07 10:18 | 23.75325 | 44.16637 | 32967 ft | 514 kts | 99° |
| 2026-05-07 10:18 | 23.74736 | 44.24426 | 32949 ft | 515 kts | 99° |
| 2026-05-07 10:19 | 23.74142 | 44.32215 | 32958 ft | 515 kts | 99° |
| 2026-05-07 10:19 | 23.73542 | 44.40010 | 32961 ft | 515 kts | 99° |
| 2026-05-07 10:20 | 23.72947 | 44.47802 | 32968 ft | 515 kts | 99° |
| 2026-05-07 10:20 | 23.72355 | 44.55588 | 32969 ft | 515 kts | 99° |
| 2026-05-07 10:21 | 23.71755 | 44.63314 | 32956 ft | 514 kts | 99° |
| 2026-05-07 10:21 | 23.71142 | 44.71088 | 32969 ft | 514 kts | 99° |
| 2026-05-07 10:22 | 23.70529 | 44.78857 | 32978 ft | 513 kts | 99° |
| 2026-05-07 10:22 | 23.69910 | 44.86615 | 32977 ft | 513 kts | 100° |
| 2026-05-07 10:23 | 23.69286 | 44.94368 | 32974 ft | 513 kts | 100° |
| 2026-05-07 10:23 | 23.68661 | 45.02137 | 32969 ft | 514 kts | 100° |
| 2026-05-07 10:24 | 23.68030 | 45.09883 | 32974 ft | 512 kts | 99° |
| 2026-05-07 10:24 | 23.67401 | 45.17621 | 32971 ft | 512 kts | 100° |
| 2026-05-07 10:25 | 23.66772 | 45.25359 | 32968 ft | 512 kts | 100° |
| 2026-05-07 10:25 | 23.66129 | 45.33105 | 32971 ft | 512 kts | 100° |
| 2026-05-07 10:26 | 23.65481 | 45.40850 | 32967 ft | 513 kts | 100° |
| 2026-05-07 10:26 | 23.64837 | 45.48597 | 32962 ft | 513 kts | 100° |
| 2026-05-07 10:27 | 23.64189 | 45.56344 | 32947 ft | 512 kts | 100° |
| 2026-05-07 10:27 | 23.63537 | 45.64031 | 32952 ft | 512 kts | 100° |
| 2026-05-07 10:28 | 23.62880 | 45.71767 | 32956 ft | 512 kts | 100° |
| 2026-05-07 10:28 | 23.62326 | 45.78246 | 32942 ft | 512 kts | 100° |
| 2026-05-07 10:29 | 23.61663 | 45.85929 | 32952 ft | 512 kts | 100° |
| 2026-05-07 10:29 | 23.60990 | 45.93666 | 32959 ft | 512 kts | 100° |
| 2026-05-07 10:30 | 23.59982 | 46.05251 | 32953 ft | 512 kts | 100° |
| 2026-05-07 10:30 | 23.59305 | 46.12973 | 32958 ft | 512 kts | 100° |
| 2026-05-07 10:31 | 23.58623 | 46.20698 | 32954 ft | 512 kts | 100° |
| 2026-05-07 10:31 | 23.57928 | 46.28429 | 32962 ft | 512 kts | 100° |
| 2026-05-07 10:32 | 23.57237 | 46.36155 | 32977 ft | 513 kts | 100° |
| 2026-05-07 10:32 | 23.56548 | 46.43891 | 32975 ft | 513 kts | 99° |
| 2026-05-07 10:33 | 23.55851 | 46.51625 | 32981 ft | 512 kts | 100° |
| 2026-05-07 10:33 | 23.55142 | 46.59352 | 32952 ft | 512 kts | 99° |
| 2026-05-07 10:34 | 23.54439 | 46.67067 | 32970 ft | 511 kts | 100° |
| 2026-05-07 10:34 | 23.53737 | 46.74720 | 32961 ft | 511 kts | 100° |
| 2026-05-07 10:35 | 23.53025 | 46.82413 | 32947 ft | 510 kts | 100° |
| 2026-05-07 10:35 | 23.52308 | 46.90104 | 32954 ft | 510 kts | 100° |
| 2026-05-07 10:36 | 23.51592 | 46.97800 | 32945 ft | 511 kts | 100° |
| 2026-05-07 10:36 | 23.50871 | 47.05503 | 32944 ft | 511 kts | 100° |
| 2026-05-07 10:37 | 23.50146 | 47.13207 | 32918 ft | 511 kts | 100° |
| 2026-05-07 10:37 | 23.49413 | 47.20892 | 32928 ft | 509 kts | 100° |
| 2026-05-07 10:38 | 23.48678 | 47.28554 | 32920 ft | 509 kts | 100° |
| 2026-05-07 10:38 | 23.47941 | 47.36229 | 32920 ft | 509 kts | 100° |
| 2026-05-07 10:39 | 23.47207 | 47.43890 | 32920 ft | 508 kts | 99° |
| 2026-05-07 10:39 | 23.46468 | 47.51547 | 32912 ft | 508 kts | 100° |
| 2026-05-07 10:40 | 23.45715 | 47.59201 | 32908 ft | 508 kts | 100° |
| 2026-05-07 10:40 | 23.44962 | 47.66852 | 32901 ft | 508 kts | 100° |
| 2026-05-07 10:41 | 23.44223 | 47.74445 | 32893 ft | 506 kts | 99° |
| 2026-05-07 10:41 | 23.43471 | 47.82069 | 32890 ft | 506 kts | 99° |
| 2026-05-07 10:42 | 23.42711 | 47.89693 | 32887 ft | 506 kts | 99° |
| 2026-05-07 10:42 | 23.41948 | 47.97309 | 32876 ft | 506 kts | 99° |
| 2026-05-07 10:43 | 23.41184 | 48.04932 | 32875 ft | 506 kts | 99° |
| 2026-05-07 10:43 | 23.40414 | 48.12555 | 32862 ft | 507 kts | 99° |
| 2026-05-07 10:44 | 23.39644 | 48.20182 | 32860 ft | 507 kts | 99° |
| 2026-05-07 10:44 | 23.38872 | 48.27798 | 32861 ft | 505 kts | 99° |
| 2026-05-07 10:45 | 23.38111 | 48.35400 | 32851 ft | 505 kts | 98° |
| 2026-05-07 10:45 | 23.37679 | 48.43038 | 32852 ft | 506 kts | 95° |
| 2026-05-07 10:46 | 23.37501 | 48.50715 | 32852 ft | 507 kts | 94° |
| 2026-05-07 10:46 | 23.37285 | 48.58380 | 32849 ft | 507 kts | 95° |
| 2026-05-07 10:47 | 23.36966 | 48.66033 | 32842 ft | 506 kts | 95° |
| 2026-05-07 10:47 | 23.36621 | 48.73635 | 32843 ft | 506 kts | 95° |
| 2026-05-07 10:48 | 23.36278 | 48.81284 | 32841 ft | 506 kts | 95° |
| 2026-05-07 10:48 | 23.35951 | 48.88929 | 32829 ft | 506 kts | 95° |
| 2026-05-07 10:49 | 23.35627 | 48.96563 | 32835 ft | 504 kts | 95° |
| 2026-05-07 10:49 | 23.35295 | 49.04191 | 32835 ft | 504 kts | 95° |
| 2026-05-07 10:50 | 23.34451 | 49.11727 | 32835 ft | 501 kts | 102° |
| 2026-05-07 10:50 | 23.33376 | 49.19222 | 32824 ft | 501 kts | 102° |
| 2026-05-07 10:51 | 23.32299 | 49.26702 | 32824 ft | 501 kts | 102° |
| 2026-05-07 10:51 | 23.31220 | 49.34189 | 32828 ft | 501 kts | 102° |
| 2026-05-07 10:52 | 23.30137 | 49.41668 | 32824 ft | 501 kts | 102° |
| 2026-05-07 10:52 | 23.29057 | 49.49146 | 32820 ft | 499 kts | 102° |
| 2026-05-07 10:53 | 23.27966 | 49.56593 | 32820 ft | 499 kts | 102° |
| 2026-05-07 10:53 | 23.26875 | 49.64041 | 32826 ft | 499 kts | 102° |
| 2026-05-07 10:54 | 23.25790 | 49.71493 | 32822 ft | 499 kts | 102° |
| 2026-05-07 10:54 | 23.24695 | 49.78887 | 32819 ft | 499 kts | 102° |
| 2026-05-07 10:55 | 23.23590 | 49.86329 | 32822 ft | 499 kts | 102° |
| 2026-05-07 10:55 | 23.22488 | 49.93773 | 32825 ft | 499 kts | 102° |
| 2026-05-07 10:56 | 23.21385 | 50.01208 | 32820 ft | 498 kts | 101° |
| 2026-05-07 10:56 | 23.20273 | 50.08634 | 32822 ft | 497 kts | 102° |
| 2026-05-07 10:57 | 23.19166 | 50.16041 | 32827 ft | 496 kts | 102° |
| 2026-05-07 10:57 | 23.18052 | 50.23455 | 32814 ft | 496 kts | 101° |
| 2026-05-07 10:58 | 23.16939 | 50.30852 | 32824 ft | 496 kts | 101° |
| 2026-05-07 10:58 | 23.15827 | 50.38246 | 32809 ft | 496 kts | 102° |
| 2026-05-07 10:59 | 23.14709 | 50.45645 | 32821 ft | 496 kts | 102° |
| 2026-05-07 10:59 | 23.13583 | 50.53036 | 32812 ft | 496 kts | 102° |
| 2026-05-07 11:00 | 23.12457 | 50.60427 | 32819 ft | 495 kts | 101° |
| 2026-05-07 11:00 | 23.11326 | 50.67796 | 32814 ft | 494 kts | 101° |
| 2026-05-07 11:01 | 23.10193 | 50.75151 | 32813 ft | 494 kts | 101° |
| 2026-05-07 11:01 | 23.09056 | 50.82511 | 32812 ft | 494 kts | 101° |
| 2026-05-07 11:02 | 23.07922 | 50.89868 | 32811 ft | 494 kts | 101° |
| 2026-05-07 11:02 | 23.06783 | 50.97226 | 32811 ft | 494 kts | 101° |
| 2026-05-07 11:03 | 23.05642 | 51.04544 | 32806 ft | 494 kts | 101° |
| 2026-05-07 11:03 | 23.04498 | 51.11903 | 32797 ft | 494 kts | 101° |
| 2026-05-07 11:04 | 23.03352 | 51.19241 | 32803 ft | 493 kts | 101° |
| 2026-05-07 11:04 | 23.02200 | 51.26567 | 32806 ft | 492 kts | 101° |
| 2026-05-07 11:05 | 23.01047 | 51.33895 | 32807 ft | 492 kts | 101° |
| 2026-05-07 11:05 | 22.99890 | 51.41228 | 32799 ft | 492 kts | 101° |
| 2026-05-07 11:06 | 22.98731 | 51.48506 | 32792 ft | 492 kts | 101° |
| 2026-05-07 11:06 | 22.97560 | 51.55834 | 32792 ft | 493 kts | 101° |
| 2026-05-07 11:07 | 22.96399 | 51.63162 | 32789 ft | 493 kts | 101° |
| 2026-05-07 11:07 | 22.95235 | 51.70481 | 32793 ft | 492 kts | 102° |
| 2026-05-07 11:08 | 22.94054 | 51.77788 | 32790 ft | 492 kts | 102° |
| 2026-05-07 11:08 | 22.92873 | 51.85110 | 32787 ft | 493 kts | 102° |
| 2026-05-07 11:09 | 22.91690 | 51.92429 | 32784 ft | 493 kts | 102° |
| 2026-05-07 11:09 | 22.90502 | 51.99749 | 32788 ft | 493 kts | 102° |
| 2026-05-07 11:10 | 22.89308 | 52.07068 | 32786 ft | 493 kts | 102° |
| 2026-05-07 11:10 | 22.88124 | 52.14358 | 32788 ft | 493 kts | 102° |
| 2026-05-07 11:11 | 22.86937 | 52.21685 | 32787 ft | 493 kts | 102° |
| 2026-05-07 11:11 | 22.85737 | 52.28996 | 32788 ft | 492 kts | 102° |
| 2026-05-07 11:12 | 22.84534 | 52.36289 | 32788 ft | 491 kts | 102° |
| 2026-05-07 11:12 | 22.83338 | 52.43578 | 32788 ft | 491 kts | 102° |
| 2026-05-07 11:13 | 22.82389 | 52.50917 | 32791 ft | 493 kts | 93° |
| 2026-05-07 11:13 | 22.82206 | 52.58350 | 32792 ft | 493 kts | 92° |
| 2026-05-07 11:14 | 22.82058 | 52.64522 | 32788 ft | 493 kts | 92° |
| 2026-05-07 11:14 | 22.81870 | 52.71952 | 32791 ft | 493 kts | 93° |
| 2026-05-07 11:15 | 22.81671 | 52.79378 | 32795 ft | 493 kts | 93° |
| 2026-05-07 11:15 | 22.81472 | 52.86809 | 32794 ft | 493 kts | 93° |
| 2026-05-07 11:16 | 22.81270 | 52.94192 | 32794 ft | 493 kts | 93° |
| 2026-05-07 11:16 | 22.81056 | 53.01617 | 32795 ft | 492 kts | 93° |
| 2026-05-07 11:17 | 22.80846 | 53.09029 | 32797 ft | 492 kts | 93° |
| 2026-05-07 11:17 | 22.80641 | 53.16439 | 32797 ft | 492 kts | 93° |
| 2026-05-07 11:18 | 22.80421 | 53.23856 | 32796 ft | 492 kts | 93° |
| 2026-05-07 11:18 | 22.80196 | 53.31269 | 32797 ft | 492 kts | 93° |
| 2026-05-07 11:19 | 22.79970 | 53.38687 | 32799 ft | 492 kts | 93° |
| 2026-05-07 11:19 | 22.79743 | 53.46098 | 32802 ft | 492 kts | 93° |
| 2026-05-07 11:20 | 22.79511 | 53.53511 | 32796 ft | 492 kts | 93° |
| 2026-05-07 11:20 | 22.79273 | 53.60934 | 32802 ft | 492 kts | 93° |
| 2026-05-07 11:21 | 22.79040 | 53.68299 | 32802 ft | 492 kts | 93° |
| 2026-05-07 11:21 | 22.78807 | 53.75715 | 32797 ft | 492 kts | 93° |
| 2026-05-07 11:22 | 22.78568 | 53.83130 | 32802 ft | 492 kts | 93° |
| 2026-05-07 11:22 | 22.78314 | 53.90544 | 32802 ft | 492 kts | 93° |
| 2026-05-07 11:23 | 22.78109 | 53.97948 | 32805 ft | 492 kts | 89° |
| 2026-05-07 11:23 | 22.79179 | 54.05271 | 32805 ft | 493 kts | 77° |
| 2026-05-07 11:24 | 22.80674 | 54.12525 | 32802 ft | 493 kts | 78° |
| 2026-05-07 11:24 | 22.82144 | 54.19781 | 32808 ft | 493 kts | 78° |
| 2026-05-07 11:25 | 22.83609 | 54.27040 | 32805 ft | 493 kts | 78° |
| 2026-05-07 11:25 | 22.85074 | 54.34301 | 32806 ft | 493 kts | 78° |
| 2026-05-07 11:26 | 22.86531 | 54.41567 | 32808 ft | 493 kts | 78° |
| 2026-05-07 11:26 | 22.87993 | 54.48829 | 32808 ft | 493 kts | 78° |
| 2026-05-07 11:27 | 22.89461 | 54.56093 | 32808 ft | 493 kts | 78° |
| 2026-05-07 11:27 | 22.90911 | 54.63313 | 32808 ft | 493 kts | 78° |
| 2026-05-07 11:28 | 22.92364 | 54.70625 | 32805 ft | 493 kts | 78° |
| 2026-05-07 11:28 | 22.93798 | 54.77846 | 32804 ft | 493 kts | 78° |
| 2026-05-07 11:29 | 22.95243 | 54.85115 | 32805 ft | 493 kts | 78° |
| 2026-05-07 11:29 | 22.96684 | 54.92384 | 32805 ft | 493 kts | 78° |
| 2026-05-07 11:30 | 22.98125 | 54.99663 | 32816 ft | 493 kts | 78° |
| 2026-05-07 11:30 | 22.99558 | 55.06942 | 32822 ft | 492 kts | 78° |
| 2026-05-07 11:31 | 23.01033 | 55.14196 | 32821 ft | 492 kts | 73° |
| 2026-05-07 11:31 | 23.02291 | 55.17644 | 32830 ft | 491 kts | 61° |
| 2026-05-07 11:31 | 23.04146 | 55.20754 | 32829 ft | 490 kts | 49° |
| 2026-05-07 11:32 | 23.09295 | 55.25464 | 32829 ft | 484 kts | 26° |
| 2026-05-07 11:32 | 23.12368 | 55.26909 | 32837 ft | 480 kts | 14° |
| 2026-05-07 11:33 | 23.18800 | 55.28829 | 32838 ft | 479 kts | 12° |
| 2026-05-07 11:33 | 23.25197 | 55.30706 | 32838 ft | 480 kts | 12° |
| 2026-05-07 11:34 | 23.31643 | 55.32602 | 32838 ft | 480 kts | 12° |
| 2026-05-07 11:34 | 23.38084 | 55.34508 | 32838 ft | 480 kts | 12° |
| 2026-05-07 11:35 | 23.44528 | 55.36416 | 32846 ft | 480 kts | 12° |
| 2026-05-07 11:35 | 23.50982 | 55.38328 | 32849 ft | 481 kts | 12° |
| 2026-05-07 11:36 | 23.57431 | 55.40241 | 32847 ft | 480 kts | 12° |
| 2026-05-07 11:36 | 23.63887 | 55.42152 | 32849 ft | 480 kts | 12° |
| 2026-05-07 11:37 | 23.70337 | 55.44063 | 32848 ft | 480 kts | 12° |
| 2026-05-07 11:37 | 23.76791 | 55.45975 | 32848 ft | 481 kts | 12° |
| 2026-05-07 11:38 | 23.83252 | 55.47892 | 32857 ft | 481 kts | 12° |
| 2026-05-07 11:38 | 23.89711 | 55.49814 | 32857 ft | 481 kts | 12° |
| 2026-05-07 11:39 | 23.96131 | 55.51726 | 32863 ft | 481 kts | 12° |
| 2026-05-07 11:39 | 23.99314 | 55.52899 | 32375 ft | 485 kts | 20° |
| 2026-05-07 11:39 | 24.02318 | 55.54679 | 31112 ft | 498 kts | 32° |
| 2026-05-07 11:39 | 24.05022 | 55.57089 | 29964 ft | 506 kts | 41° |
| 2026-05-07 11:40 | 24.07603 | 55.59725 | 28891 ft | 506 kts | 41° |
| 2026-05-07 11:40 | 24.10165 | 55.62298 | 28321 ft | 495 kts | 41° |
| 2026-05-07 11:40 | 24.12699 | 55.64811 | 27639 ft | 488 kts | 41° |
| 2026-05-07 11:40 | 24.15209 | 55.67283 | 26984 ft | 482 kts | 40° |
| 2026-05-07 11:41 | 24.17687 | 55.69714 | 26342 ft | 476 kts | 40° |
| 2026-05-07 11:41 | 24.20139 | 55.72120 | 25704 ft | 470 kts | 41° |
| 2026-05-07 11:41 | 24.22553 | 55.74506 | 25073 ft | 465 kts | 41° |
| 2026-05-07 11:41 | 24.24935 | 55.76872 | 24447 ft | 459 kts | 41° |
| 2026-05-07 11:42 | 24.27285 | 55.79211 | 23857 ft | 454 kts | 41° |
| 2026-05-07 11:42 | 24.29605 | 55.81522 | 23238 ft | 448 kts | 41° |
| 2026-05-07 11:42 | 24.31890 | 55.83800 | 22664 ft | 439 kts | 41° |
| 2026-05-07 11:42 | 24.34129 | 55.86033 | 22136 ft | 430 kts | 41° |
| 2026-05-07 11:43 | 24.36315 | 55.88215 | 21677 ft | 419 kts | 41° |
| 2026-05-07 11:43 | 24.38417 | 55.90314 | 21573 ft | 399 kts | 42° |
| 2026-05-07 11:43 | 24.40427 | 55.92318 | 21466 ft | 382 kts | 41° |
| 2026-05-07 11:43 | 24.42392 | 55.94278 | 21107 ft | 383 kts | 42° |
| 2026-05-07 11:44 | 24.44358 | 55.96235 | 20671 ft | 381 kts | 42° |
| 2026-05-07 11:44 | 24.46314 | 55.98180 | 20226 ft | 378 kts | 42° |
| 2026-05-07 11:44 | 24.48231 | 56.00088 | 19783 ft | 374 kts | 42° |
| 2026-05-07 11:44 | 24.50148 | 56.02002 | 19334 ft | 371 kts | 43° |
| 2026-05-07 11:45 | 24.52051 | 56.03903 | 18892 ft | 368 kts | 43° |
| 2026-05-07 11:45 | 24.53938 | 56.05790 | 18433 ft | 365 kts | 43° |
| 2026-05-07 11:45 | 24.55803 | 56.07659 | 17942 ft | 362 kts | 43° |
| 2026-05-07 11:45 | 24.57747 | 56.09397 | 17443 ft | 359 kts | 34° |
| 2026-05-07 11:46 | 24.59954 | 56.10660 | 16962 ft | 357 kts | 22° |
| 2026-05-07 11:46 | 24.62344 | 56.11380 | 16474 ft | 356 kts | 9° |
| 2026-05-07 11:46 | 24.64812 | 56.11525 | 16012 ft | 356 kts | 358° |
| 2026-05-07 11:46 | 24.67269 | 56.11200 | 15543 ft | 355 kts | 354° |
| 2026-05-07 11:47 | 24.69722 | 56.10833 | 15070 ft | 356 kts | 354° |
| 2026-05-07 11:47 | 24.72170 | 56.10473 | 14581 ft | 354 kts | 354° |
| 2026-05-07 11:47 | 24.74606 | 56.10120 | 14117 ft | 352 kts | 353° |
| 2026-05-07 11:47 | 24.77032 | 56.09770 | 13659 ft | 350 kts | 353° |
| 2026-05-07 11:48 | 24.79414 | 56.09429 | 13149 ft | 349 kts | 353° |
| 2026-05-07 11:48 | 24.81813 | 56.09086 | 12701 ft | 346 kts | 354° |
| 2026-05-07 11:48 | 24.84182 | 56.08745 | 12545 ft | 331 kts | 353° |
| 2026-05-07 11:48 | 24.86422 | 56.08422 | 12419 ft | 318 kts | 353° |
| 2026-05-07 11:49 | 24.88571 | 56.08111 | 12296 ft | 305 kts | 353° |
| 2026-05-07 11:49 | 24.90649 | 56.07808 | 12074 ft | 298 kts | 354° |
| 2026-05-07 11:49 | 24.92656 | 56.07518 | 11824 ft | 293 kts | 353° |
| 2026-05-07 11:49 | 24.94691 | 56.07226 | 11583 ft | 295 kts | 353° |
| 2026-05-07 11:50 | 24.96679 | 56.06639 | 11335 ft | 291 kts | 335° |
| 2026-05-07 11:50 | 24.98395 | 56.05462 | 11099 ft | 291 kts | 317° |
| 2026-05-07 11:50 | 24.99783 | 56.03863 | 10864 ft | 287 kts | 310° |
| 2026-05-07 11:50 | 25.01108 | 56.02234 | 10631 ft | 284 kts | 310° |
| 2026-05-07 11:51 | 25.02428 | 56.00620 | 10390 ft | 283 kts | 311° |
| 2026-05-07 11:51 | 25.03744 | 55.99011 | 10165 ft | 282 kts | 310° |
| 2026-05-07 11:51 | 25.05054 | 55.97411 | 9952 ft | 280 kts | 310° |
| 2026-05-07 11:51 | 25.06360 | 55.95813 | 9835 ft | 281 kts | 310° |
| 2026-05-07 11:52 | 25.07669 | 55.94210 | 9723 ft | 281 kts | 309° |
| 2026-05-07 11:52 | 25.08972 | 55.92613 | 9610 ft | 279 kts | 310° |
| 2026-05-07 11:52 | 25.10268 | 55.91024 | 9477 ft | 278 kts | 310° |
| 2026-05-07 11:52 | 25.11557 | 55.89440 | 9352 ft | 277 kts | 310° |
| 2026-05-07 11:53 | 25.12838 | 55.87865 | 9235 ft | 275 kts | 310° |
| 2026-05-07 11:53 | 25.14119 | 55.86296 | 9108 ft | 275 kts | 310° |
| 2026-05-07 11:53 | 25.15378 | 55.84742 | 8989 ft | 274 kts | 307° |
| 2026-05-07 11:53 | 25.16432 | 55.83007 | 8862 ft | 272 kts | 299° |
| 2026-05-07 11:54 | 25.17420 | 55.81226 | 8733 ft | 271 kts | 300° |
| 2026-05-07 11:54 | 25.18410 | 55.79452 | 8611 ft | 271 kts | 300° |
| 2026-05-07 11:54 | 25.19399 | 55.77687 | 8490 ft | 270 kts | 301° |
| 2026-05-07 11:54 | 25.20387 | 55.75919 | 8369 ft | 271 kts | 301° |
| 2026-05-07 11:55 | 25.21373 | 55.74147 | 8249 ft | 270 kts | 301° |
| 2026-05-07 11:55 | 25.22356 | 55.72380 | 8066 ft | 270 kts | 301° |
| 2026-05-07 11:55 | 25.23339 | 55.70616 | 7707 ft | 270 kts | 301° |
| 2026-05-07 11:55 | 25.24329 | 55.68848 | 7296 ft | 269 kts | 301° |
| 2026-05-07 11:56 | 25.25286 | 55.67137 | 7220 ft | 255 kts | 301° |
| 2026-05-07 11:56 | 25.26196 | 55.65510 | 7109 ft | 244 kts | 301° |
| 2026-05-07 11:56 | 25.27081 | 55.63925 | 6874 ft | 241 kts | 301° |
| 2026-05-07 11:56 | 25.27953 | 55.62360 | 6633 ft | 238 kts | 302° |
| 2026-05-07 11:57 | 25.28819 | 55.60802 | 6395 ft | 236 kts | 302° |
| 2026-05-07 11:57 | 25.29432 | 55.59140 | 6163 ft | 235 kts | 275° |
| 2026-05-07 11:57 | 25.29345 | 55.57960 | 6001 ft | 234 kts | 252° |
| 2026-05-07 11:57 | 25.28026 | 55.56146 | 5880 ft | 236 kts | 210° |
| 2026-05-07 11:58 | 25.26571 | 55.55286 | 5791 ft | 237 kts | 211° |
| 2026-05-07 11:58 | 25.25046 | 55.54681 | 5711 ft | 229 kts | 185° |
| 2026-05-07 11:58 | 25.23541 | 55.55049 | 5555 ft | 222 kts | 150° |
| 2026-05-07 11:58 | 25.22479 | 55.56256 | 5257 ft | 221 kts | 122° |
| 2026-05-07 11:59 | 25.21934 | 55.57236 | 5007 ft | 222 kts | 123° |
| 2026-05-07 11:59 | 25.21130 | 55.58691 | 4580 ft | 223 kts | 123° |
| 2026-05-07 11:59 | 25.20106 | 55.59921 | 4053 ft | 214 kts | 149° |
| 2026-05-07 11:59 | 25.18737 | 55.60476 | 3536 ft | 209 kts | 177° |
| 2026-05-07 12:00 | 25.17334 | 55.60265 | 3095 ft | 201 kts | 205° |
| 2026-05-07 12:00 | 25.16205 | 55.59418 | 3010 ft | 196 kts | 229° |
| 2026-05-07 12:00 | 25.15380 | 55.58238 | 3012 ft | 194 kts | 235° |
| 2026-05-07 12:00 | 25.14779 | 55.56918 | 3014 ft | 194 kts | 257° |
| 2026-05-07 12:01 | 25.14821 | 55.55453 | 3006 ft | 195 kts | 284° |
| 2026-05-07 12:01 | 25.15416 | 55.54168 | 2869 ft | 187 kts | 298° |
| 2026-05-07 12:01 | 25.16104 | 55.52949 | 2664 ft | 183 kts | 298° |
| 2026-05-07 12:01 | 25.16763 | 55.51773 | 2443 ft | 176 kts | 297° |
| 2026-05-07 12:02 | 25.17377 | 55.50675 | 2241 ft | 163 kts | 296° |
| 2026-05-07 12:02 | 25.17958 | 55.49631 | 2040 ft | 158 kts | 297° |
| 2026-05-07 12:02 | 25.18529 | 55.48603 | 1841 ft | 157 kts | 297° |
| 2026-05-07 12:02 | 25.19091 | 55.47592 | 1653 ft | 157 kts | 297° |
| 2026-05-07 12:03 | 25.19647 | 55.46594 | 1454 ft | 146 kts | 296° |
| 2026-05-07 12:03 | 25.20160 | 55.45672 | 1270 ft | 140 kts | 297° |
| 2026-05-07 12:03 | 25.20665 | 55.44761 | 1095 ft | 137 kts | 298° |
| 2026-05-07 12:03 | 25.21160 | 55.43869 | 935 ft | 136 kts | 298° |
| 2026-05-07 12:04 | 25.21642 | 55.42981 | 789 ft | 135 kts | 297° |
| 2026-05-07 12:04 | 25.22141 | 55.42095 | 610 ft | 140 kts | 300° |
| 2026-05-07 12:04 | 25.22646 | 55.41184 | 415 ft | 138 kts | 299° |
| 2026-05-07 12:04 | 25.23142 | 55.40299 | 204 ft | 133 kts | 298° |
| 2026-05-07 12:05 | 25.23620 | 55.39429 | 63 ft | 132 kts | 296° |
| 2026-05-07 12:05 | 25.24075 | 55.38597 | 25 ft | 117 kts | 298° |